createdAt,value
2023-04-09T00:00:17.949Z,6.40
2023-04-09T00:02:45.090Z,6.77
2023-04-09T00:05:12.259Z,6.90
2023-04-09T00:07:39.278Z,7.37
2023-04-09T00:10:07.510Z,7.63
2023-04-09T00:12:34.611Z,7.27
2023-04-09T00:15:01.651Z,7.77
2023-04-09T00:17:28.672Z,6.87
2023-04-09T00:19:56.221Z,6.53
2023-04-09T00:22:23.347Z,7.17
2023-04-09T00:24:50.421Z,6.90
2023-04-09T00:27:17.490Z,7.67
2023-04-09T00:29:44.571Z,7.57
2023-04-09T00:32:11.574Z,7.83
2023-04-09T00:34:38.904Z,8.20
2023-04-09T00:37:06.397Z,7.63
2023-04-09T00:39:33.453Z,8.13
2023-04-09T00:42:04.171Z,8.97
2023-04-09T00:44:31.296Z,8.80
2023-04-09T00:47:02.673Z,8.70
2023-04-09T00:49:29.906Z,8.50
2023-04-09T00:51:57.128Z,8.47
2023-04-09T00:54:24.109Z,8.77
2023-04-09T00:56:52.020Z,8.17
2023-04-09T00:59:19.690Z,7.97
2023-04-09T01:01:46.726Z,8.47
2023-04-09T01:04:13.904Z,8.57
2023-04-09T01:06:51.983Z,8.10
2023-04-09T01:09:35.501Z,8.93
2023-04-09T01:12:35.936Z,8.70
2023-04-09T01:15:08.714Z,8.60
2023-04-09T01:18:07.708Z,8.80
2023-04-09T01:20:48.071Z,8.20
2023-04-09T01:23:29.591Z,8.30
2023-04-09T01:26:15.018Z,7.37
2023-04-09T01:28:49.128Z,7.83
2023-04-09T01:31:20.279Z,8.00
2023-04-09T01:33:47.683Z,7.33
2023-04-09T01:36:15.466Z,7.37
2023-04-09T01:38:43.523Z,8.00
2023-04-09T01:41:17.290Z,7.80
2023-04-09T01:43:45.512Z,7.47
2023-04-09T01:46:13.783Z,8.47
2023-04-09T01:48:41.249Z,9.67
2023-04-09T01:51:08.290Z,8.03
2023-04-09T01:53:36.288Z,8.53
2023-04-09T01:56:03.759Z,9.87
2023-04-09T01:58:30.872Z,8.57
2023-04-09T02:01:14.584Z,8.47
2023-04-09T02:03:49.135Z,9.27
2023-04-09T02:06:43.046Z,7.93
2023-04-09T02:09:11.375Z,7.83
2023-04-09T02:11:41.740Z,7.93
2023-04-09T02:14:11.377Z,8.40
2023-04-09T02:16:39.995Z,8.47
2023-04-09T02:19:07.005Z,8.30
2023-04-09T02:21:34.378Z,8.60
2023-04-09T02:24:01.366Z,8.23
2023-04-09T02:26:28.430Z,8.67
2023-04-09T02:28:55.463Z,8.60
2023-04-09T02:31:22.451Z,9.03
2023-04-09T02:33:49.490Z,8.20
2023-04-09T02:36:16.595Z,8.70
2023-04-09T02:38:43.753Z,9.37
2023-04-09T02:41:10.897Z,9.27
2023-04-09T02:43:38.032Z,8.83
2023-04-09T02:46:05.358Z,9.07
2023-04-09T02:48:32.760Z,8.67
2023-04-09T02:50:59.777Z,9.00
2023-04-09T02:53:27.076Z,8.87
2023-04-09T02:55:54.116Z,9.63
2023-04-09T02:58:21.141Z,9.57
2023-04-09T03:00:48.160Z,9.47
2023-04-09T03:03:15.539Z,9.30
2023-04-09T03:05:42.705Z,9.13
2023-04-09T03:08:09.720Z,9.80
2023-04-09T03:10:36.754Z,9.27
2023-04-09T03:13:03.752Z,9.40
2023-04-09T03:15:30.770Z,9.60
2023-04-09T03:17:57.784Z,9.23
2023-04-09T03:20:24.884Z,8.53
2023-04-09T03:22:51.866Z,9.10
2023-04-09T03:25:20.675Z,8.23
2023-04-09T03:27:47.813Z,8.07
2023-04-09T03:30:14.794Z,8.60
2023-04-09T03:32:41.875Z,8.70
2023-04-09T03:35:09.212Z,8.90
2023-04-09T03:37:36.235Z,8.50
2023-04-09T03:40:04.007Z,8.17
2023-04-09T03:42:31.457Z,8.00
2023-04-09T03:44:58.461Z,8.07
2023-04-09T03:47:25.610Z,8.07
2023-04-09T03:49:52.722Z,8.63
2023-04-09T03:52:19.774Z,9.00
2023-04-09T03:54:46.787Z,8.37
2023-04-09T03:57:13.826Z,9.17
2023-04-09T03:59:40.804Z,8.70
2023-04-09T04:02:07.838Z,9.00
2023-04-09T04:04:34.979Z,8.80
2023-04-09T04:07:03.989Z,8.90
2023-04-09T04:09:31.077Z,9.10
2023-04-09T04:11:58.953Z,9.80
2023-04-09T04:14:26.010Z,10.03
2023-04-09T04:16:52.995Z,8.97
2023-04-09T04:19:19.959Z,9.67
2023-04-09T04:21:47.084Z,9.40
2023-04-09T04:24:14.038Z,10.07
2023-04-09T04:26:41.063Z,8.97
2023-04-09T04:29:08.140Z,8.40
2023-04-09T04:31:35.201Z,9.07
2023-04-09T04:34:02.241Z,9.40
2023-04-09T04:36:29.327Z,8.93
2023-04-09T04:38:56.282Z,8.47
2023-04-09T04:41:23.395Z,7.83
2023-04-09T04:43:50.408Z,9.00
2023-04-09T04:46:17.495Z,9.17
2023-04-09T04:48:44.579Z,8.87
2023-04-09T04:51:11.567Z,8.30
2023-04-09T04:53:38.654Z,9.00
2023-04-09T04:56:05.962Z,9.23
2023-04-09T04:58:32.924Z,8.23
2023-04-09T05:01:00.686Z,8.90
2023-04-09T05:03:27.836Z,9.63
2023-04-09T05:05:55.023Z,9.17
2023-04-09T05:08:22.043Z,8.73
2023-04-09T05:10:49.070Z,9.27
2023-04-09T05:13:16.054Z,8.87
2023-04-09T05:15:43.167Z,9.47
2023-04-09T05:18:10.444Z,9.10
2023-04-09T05:20:37.450Z,8.97
2023-04-09T05:23:04.566Z,9.00
2023-04-09T05:25:31.689Z,8.67
2023-04-09T05:27:58.660Z,8.80
2023-04-09T05:30:25.943Z,9.27
2023-04-09T05:32:52.972Z,8.70
2023-04-09T05:35:20.466Z,9.07
2023-04-09T05:37:47.474Z,9.30
2023-04-09T05:40:15.008Z,9.38
2023-04-09T05:42:42.085Z,8.50
2023-04-09T05:45:09.988Z,9.07
2023-04-09T05:47:37.141Z,9.52
2023-04-09T05:50:04.670Z,8.40
2023-04-09T05:52:32.195Z,9.80
2023-04-09T05:54:59.266Z,9.18
2023-04-09T05:57:26.286Z,8.60
2023-04-09T05:59:53.476Z,8.65
2023-04-09T06:02:20.667Z,8.23
2023-04-09T06:04:47.929Z,8.68
2023-04-09T06:07:15.010Z,7.97
2023-04-09T06:09:44.198Z,8.40
2023-04-09T06:12:11.408Z,8.88
2023-04-09T06:14:38.405Z,8.95
2023-04-09T06:17:05.602Z,9.90
2023-04-09T06:19:32.618Z,8.85
2023-04-09T06:21:59.756Z,9.25
2023-04-09T06:24:27.182Z,8.60
2023-04-09T06:26:54.174Z,10.48
2023-04-09T06:29:23.164Z,9.95
2023-04-09T06:31:51.503Z,9.43
2023-04-09T06:34:18.498Z,9.70
2023-04-09T06:36:45.949Z,9.85
2023-04-09T06:39:12.944Z,9.57
2023-04-09T06:41:39.952Z,10.02
2023-04-09T06:44:07.140Z,10.75
2023-04-09T06:46:34.194Z,10.43
2023-04-09T06:49:01.178Z,10.43
2023-04-09T06:51:28.305Z,9.85
2023-04-09T06:53:55.570Z,9.52
2023-04-09T06:56:22.836Z,9.02
2023-04-09T06:58:49.836Z,9.45
2023-04-09T07:01:17.514Z,10.38
2023-04-09T07:03:44.931Z,10.75
2023-04-09T07:06:12.139Z,12.32
2023-04-09T07:08:39.182Z,10.32
2023-04-09T07:11:06.256Z,11.30
2023-04-09T07:13:33.500Z,10.27
2023-04-09T07:16:00.794Z,10.63
2023-04-09T07:18:27.903Z,11.13
2023-04-09T07:20:55.311Z,11.20
2023-04-09T07:23:22.944Z,11.27
2023-04-09T07:25:50.024Z,10.13
2023-04-09T07:28:17.048Z,10.85
2023-04-09T07:30:44.108Z,11.27
2023-04-09T07:33:11.357Z,11.15
2023-04-09T07:35:38.434Z,10.63
2023-04-09T07:38:05.410Z,10.98
2023-04-09T07:40:34.636Z,10.65
2023-04-09T07:43:01.678Z,10.38
2023-04-09T07:45:28.744Z,11.10
2023-04-09T07:47:56.030Z,10.75
2023-04-09T07:50:23.111Z,11.30
2023-04-09T07:52:50.095Z,11.15
2023-04-09T07:55:18.525Z,9.90
2023-04-09T07:57:45.913Z,9.23
2023-04-09T08:00:13.517Z,9.40
2023-04-09T08:02:40.908Z,8.43
2023-04-09T08:05:08.764Z,8.82
2023-04-09T08:07:36.896Z,9.27
2023-04-09T08:10:04.873Z,8.68
2023-04-09T08:12:31.932Z,8.68
2023-04-09T08:14:58.953Z,8.77
2023-04-09T08:17:25.930Z,8.98
2023-04-09T08:19:53.090Z,9.13
2023-04-09T08:22:20.093Z,8.70
2023-04-09T08:24:52.944Z,8.07
2023-04-09T08:27:20.422Z,8.43
2023-04-09T08:29:47.636Z,9.00
2023-04-09T08:32:14.887Z,8.85
2023-04-09T08:34:42.110Z,8.80
2023-04-09T08:37:09.117Z,8.15
2023-04-09T08:39:36.755Z,8.75
2023-04-09T08:42:07.232Z,9.77
2023-04-09T08:44:34.397Z,9.43
2023-04-09T08:47:02.687Z,9.15
2023-04-09T08:49:29.718Z,8.82
2023-04-09T08:51:57.084Z,9.20
2023-04-09T08:54:26.763Z,8.32
2023-04-09T08:56:53.848Z,9.02
2023-04-09T08:59:21.213Z,8.85
2023-04-09T09:01:54.200Z,8.80
2023-04-09T09:04:21.659Z,9.40
2023-04-09T09:06:48.702Z,8.38
2023-04-09T09:09:17.626Z,9.60
2023-04-09T09:11:51.025Z,8.55
2023-04-09T09:14:19.886Z,9.57
2023-04-09T09:16:56.185Z,9.02
2023-04-09T09:19:26.646Z,8.45
2023-04-09T09:22:04.910Z,10.18
2023-04-09T09:24:33.981Z,9.80
2023-04-09T09:27:02.546Z,8.57
2023-04-09T09:29:29.814Z,8.48
2023-04-09T09:31:57.012Z,9.75
2023-04-09T09:34:25.430Z,8.65
2023-04-09T09:36:52.740Z,9.35
2023-04-09T09:39:20.139Z,9.23
2023-04-09T09:41:48.868Z,9.73
2023-04-09T09:44:33.197Z,9.55
2023-04-09T09:47:03.548Z,11.30
2023-04-09T09:49:30.789Z,12.00
2023-04-09T09:52:02.985Z,11.60
2023-04-09T09:54:39.953Z,12.07
2023-04-09T09:57:10.752Z,10.55
2023-04-09T09:59:40.640Z,9.55
2023-04-09T10:02:20.026Z,10.63
2023-04-09T10:04:53.794Z,10.57
2023-04-09T10:07:22.383Z,10.13
2023-04-09T10:09:56.705Z,10.65
2023-04-09T10:12:25.064Z,9.90
2023-04-09T10:14:53.157Z,10.13
2023-04-09T10:17:21.781Z,9.50
2023-04-09T10:20:12.909Z,9.95
2023-04-09T10:22:43.505Z,10.10
2023-04-09T10:25:10.850Z,10.35
2023-04-09T10:27:37.816Z,9.38
2023-04-09T10:30:10.338Z,11.45
2023-04-09T10:32:37.462Z,10.65
2023-04-09T10:35:05.158Z,9.93
2023-04-09T10:37:32.301Z,10.20
2023-04-09T10:39:59.348Z,9.27
2023-04-09T10:42:42.089Z,10.13
2023-04-09T10:45:11.561Z,10.40
2023-04-09T10:47:41.554Z,10.00
2023-04-09T10:50:25.796Z,10.35
2023-04-09T10:52:56.427Z,10.57
2023-04-09T10:55:39.947Z,9.88
2023-04-09T10:58:13.596Z,9.30
2023-04-09T11:00:44.058Z,10.23
2023-04-09T11:03:24.039Z,10.02
2023-04-09T11:05:56.852Z,9.25
2023-04-09T11:08:23.995Z,8.82
2023-04-09T11:10:53.393Z,9.77
2023-04-09T11:13:21.899Z,10.05
2023-04-09T11:15:49.083Z,9.95
2023-04-09T11:18:30.914Z,10.13
2023-04-09T11:21:03.844Z,9.40
2023-04-09T11:23:32.924Z,10.18
2023-04-09T11:26:00.139Z,8.50
2023-04-09T11:28:27.429Z,9.13
2023-04-09T11:30:54.420Z,9.18
2023-04-09T11:33:21.613Z,9.23
2023-04-09T11:35:49.154Z,8.25
2023-04-09T11:38:16.237Z,8.43
2023-04-09T11:40:51.516Z,8.95
2023-04-09T11:43:20.862Z,9.05
2023-04-09T11:45:48.704Z,7.55
2023-04-09T11:48:18.489Z,8.38
2023-04-09T11:50:47.486Z,7.97
2023-04-09T11:53:22.829Z,8.43
2023-04-09T11:55:54.276Z,7.97
2023-04-09T11:58:26.648Z,9.20
2023-04-09T12:01:03.920Z,9.35
2023-04-09T12:03:33.152Z,9.15
2023-04-09T12:06:02.825Z,7.65
2023-04-09T12:08:31.317Z,8.23
2023-04-09T12:11:12.149Z,7.15
2023-04-09T12:13:45.656Z,7.57
2023-04-09T12:16:13.829Z,7.03
2023-04-09T12:18:41.259Z,7.28
2023-04-09T12:21:08.385Z,7.55
2023-04-09T12:23:35.630Z,7.47
2023-04-09T12:26:02.684Z,7.90
2023-04-09T12:28:29.880Z,7.78
2023-04-09T12:30:58.305Z,6.93
2023-04-09T12:33:25.382Z,6.80
2023-04-09T12:35:52.366Z,6.57
2023-04-09T12:38:19.384Z,7.35
2023-04-09T12:40:46.731Z,7.65
2023-04-09T12:43:13.693Z,6.82
2023-04-09T12:45:40.714Z,6.20
2023-04-09T12:48:07.792Z,6.72
2023-04-09T12:50:34.855Z,6.38
2023-04-09T12:53:01.856Z,6.55
2023-04-09T12:55:29.003Z,6.63
2023-04-09T12:57:56.140Z,6.95
2023-04-09T13:00:23.285Z,6.65
2023-04-09T13:02:52.741Z,6.03
2023-04-09T13:05:19.993Z,6.63
2023-04-09T13:07:46.981Z,6.65
2023-04-09T13:10:13.984Z,6.82
2023-04-09T13:12:41.218Z,6.70
2023-04-09T13:15:08.446Z,6.95
2023-04-09T13:17:35.648Z,6.05
2023-04-09T13:20:03.772Z,7.00
2023-04-09T13:22:31.024Z,6.88
2023-04-09T13:24:58.035Z,7.53
2023-04-09T13:27:25.116Z,6.97
2023-04-09T13:29:52.124Z,6.47
2023-04-09T13:32:21.108Z,6.72
2023-04-09T13:34:48.200Z,5.95
2023-04-09T13:37:15.782Z,6.75
2023-04-09T13:39:44.300Z,7.32
2023-04-09T13:42:14.051Z,6.85
2023-04-09T13:44:44.620Z,6.97
2023-04-09T13:47:13.585Z,7.15
2023-04-09T13:49:41.402Z,6.28
2023-04-09T13:52:09.514Z,6.75
2023-04-09T13:54:37.289Z,4.78
2023-04-09T13:57:04.552Z,5.72
2023-04-09T13:59:31.536Z,4.93
2023-04-09T14:01:58.742Z,4.53
2023-04-09T14:04:26.081Z,4.28
2023-04-09T14:06:53.151Z,4.53
2023-04-09T14:09:20.325Z,4.30
2023-04-09T14:11:47.341Z,4.38
2023-04-09T14:14:14.332Z,4.82
2023-04-09T14:16:41.470Z,5.43
2023-04-09T14:19:10.106Z,5.30
2023-04-09T14:21:37.280Z,5.20
2023-04-09T14:24:04.399Z,5.75
2023-04-09T14:26:31.634Z,5.70
2023-04-09T14:28:58.593Z,5.25
2023-04-09T14:31:25.569Z,5.10
2023-04-09T14:33:52.624Z,5.45
2023-04-09T14:36:19.590Z,4.80
2023-04-09T14:38:48.480Z,5.35
2023-04-09T14:41:16.519Z,5.53
2023-04-09T14:43:43.520Z,6.55
2023-04-09T14:46:12.203Z,5.63
2023-04-09T14:48:40.015Z,5.32
2023-04-09T14:51:11.088Z,5.22
2023-04-09T14:53:38.608Z,4.95
2023-04-09T14:56:06.658Z,4.88
2023-04-09T14:58:33.730Z,5.32
2023-04-09T15:01:00.802Z,6.05
2023-04-09T15:03:28.160Z,5.60
2023-04-09T15:05:55.553Z,5.40
2023-04-09T15:08:23.660Z,6.00
2023-04-09T15:10:51.263Z,5.40
2023-04-09T15:13:18.399Z,5.65
2023-04-09T15:15:45.515Z,5.35
2023-04-09T15:18:12.594Z,5.15
2023-04-09T15:20:40.502Z,5.47
2023-04-09T15:23:07.547Z,5.28
2023-04-09T15:25:34.561Z,5.15
2023-04-09T15:28:03.236Z,5.80
2023-04-09T15:30:30.695Z,5.88
2023-04-09T15:32:58.145Z,5.47
2023-04-09T15:35:29.103Z,5.90
2023-04-09T15:37:57.088Z,5.55
2023-04-09T15:40:24.224Z,6.05
2023-04-09T15:42:51.324Z,6.30
2023-04-09T15:45:18.447Z,6.03
2023-04-09T15:47:46.211Z,5.40
2023-04-09T15:50:14.154Z,5.43
2023-04-09T15:52:41.232Z,5.50
2023-04-09T15:55:09.160Z,4.97
2023-04-09T15:57:36.505Z,5.57
2023-04-09T16:00:03.904Z,5.68
2023-04-09T16:02:30.981Z,5.80
2023-04-09T16:04:58.081Z,5.97
2023-04-09T16:07:25.178Z,5.82
2023-04-09T16:09:52.322Z,5.40
2023-04-09T16:12:19.268Z,6.25
2023-04-09T16:14:46.339Z,5.80
2023-04-09T16:17:13.296Z,6.20
2023-04-09T16:19:40.330Z,5.57
2023-04-09T16:22:07.507Z,5.30
2023-04-09T16:24:34.576Z,4.93
2023-04-09T16:27:01.625Z,5.15
2023-04-09T16:29:28.634Z,5.00
2023-04-09T16:31:57.557Z,5.45
2023-04-09T16:34:25.004Z,5.30
2023-04-09T16:36:52.021Z,6.68
2023-04-09T16:39:19.921Z,6.25
2023-04-09T16:41:47.017Z,6.82
2023-04-09T16:44:14.027Z,6.63
2023-04-09T16:46:41.054Z,7.72
2023-04-09T16:49:08.137Z,7.40
2023-04-09T16:51:35.270Z,6.93
2023-04-09T16:54:02.344Z,7.65
2023-04-09T16:56:29.336Z,7.85
2023-04-09T16:58:56.340Z,7.47
2023-04-09T17:01:23.435Z,8.05
2023-04-09T17:03:50.729Z,6.90
2023-04-09T17:06:18.088Z,8.63
2023-04-09T17:08:45.876Z,7.88
2023-04-09T17:11:17.212Z,8.20
2023-04-09T17:13:44.272Z,8.27
2023-04-09T17:16:11.921Z,8.10
2023-04-09T17:18:39.274Z,7.13
2023-04-09T17:21:07.054Z,7.43
2023-04-09T17:23:34.149Z,7.03
2023-04-09T17:26:02.293Z,6.88
2023-04-09T17:28:29.510Z,6.55
2023-04-09T17:30:56.587Z,6.13
2023-04-09T17:33:23.646Z,6.57
2023-04-09T17:35:50.903Z,6.25
2023-04-09T17:38:21.289Z,6.38
2023-04-09T17:40:48.842Z,6.60
2023-04-09T17:43:15.870Z,6.65
2023-04-09T17:45:43.288Z,6.93
2023-04-09T17:48:10.859Z,7.65
2023-04-09T17:50:39.111Z,7.90
2023-04-09T17:53:06.238Z,7.65
2023-04-09T17:55:33.249Z,7.88
2023-04-09T17:58:00.382Z,7.75
2023-04-09T18:00:27.583Z,8.70
2023-04-09T18:02:54.927Z,10.55
2023-04-09T18:05:23.038Z,10.48
2023-04-09T18:07:50.831Z,9.45
2023-04-09T18:10:18.670Z,8.23
2023-04-09T18:12:45.845Z,7.25
2023-04-09T18:15:12.874Z,6.47
2023-04-09T18:17:39.897Z,6.38
2023-04-09T18:20:07.591Z,6.05
2023-04-09T18:22:35.194Z,5.10
2023-04-09T18:25:02.449Z,5.05
2023-04-09T18:27:29.468Z,5.35
2023-04-09T18:29:56.533Z,6.03
2023-04-09T18:32:23.768Z,5.85
2023-04-09T18:34:52.135Z,6.57
2023-04-09T18:37:20.772Z,6.88
2023-04-09T18:39:47.999Z,6.43
2023-04-09T18:42:15.012Z,5.78
2023-04-09T18:44:42.456Z,5.93
2023-04-09T18:47:11.141Z,5.75
2023-04-09T18:49:38.192Z,5.93
2023-04-09T18:52:09.340Z,5.75
2023-04-09T18:54:37.288Z,6.13
2023-04-09T18:57:04.561Z,5.65
2023-04-09T18:59:34.750Z,5.70
2023-04-09T19:02:05.866Z,5.28
2023-04-09T19:04:39.990Z,5.05
2023-04-09T19:07:07.542Z,5.45
2023-04-09T19:09:37.148Z,4.60
2023-04-09T19:12:04.839Z,5.38
2023-04-09T19:14:31.811Z,5.70
2023-04-09T19:16:59.706Z,5.35
2023-04-09T19:19:27.485Z,5.43
2023-04-09T19:21:54.660Z,4.85
2023-04-09T19:24:21.674Z,4.35
2023-04-09T19:26:50.858Z,4.30
2023-04-09T19:29:17.838Z,4.32
2023-04-09T19:31:46.035Z,3.95
2023-04-09T19:34:13.490Z,4.00
2023-04-09T19:36:40.796Z,4.15
2023-04-09T19:39:08.543Z,4.88
2023-04-09T19:41:35.835Z,4.97
2023-04-09T19:44:03.358Z,5.43
2023-04-09T19:46:30.563Z,5.97
2023-04-09T19:48:57.686Z,5.43
2023-04-09T19:51:24.631Z,6.03
2023-04-09T19:53:51.789Z,6.13
2023-04-09T19:56:19.009Z,6.20
2023-04-09T19:58:46.051Z,6.00
2023-04-09T20:01:13.247Z,7.15
2023-04-09T20:03:40.783Z,7.30
2023-04-09T20:06:09.998Z,7.10
2023-04-09T20:08:38.080Z,8.02
2023-04-09T20:11:05.919Z,7.93
2023-04-09T20:13:33.384Z,8.68
2023-04-09T20:16:01.612Z,8.18
2023-04-09T20:18:28.842Z,7.53
2023-04-09T20:20:56.504Z,8.35
2023-04-09T20:23:23.497Z,8.38
2023-04-09T20:25:56.838Z,8.38
2023-04-09T20:28:24.008Z,8.68
2023-04-09T20:30:51.230Z,8.15
2023-04-09T20:33:18.706Z,8.90
2023-04-09T20:35:45.937Z,8.85
2023-04-09T20:38:13.154Z,9.13
2023-04-09T20:40:40.512Z,8.45
2023-04-09T20:43:07.516Z,9.10
2023-04-09T20:45:34.648Z,9.02
2023-04-09T20:48:02.428Z,8.95
2023-04-09T20:50:31.111Z,9.38
2023-04-09T20:52:58.990Z,9.95
2023-04-09T20:55:26.594Z,8.80
2023-04-09T20:57:56.670Z,9.90
2023-04-09T21:00:24.246Z,10.23
2023-04-09T21:02:51.613Z,9.77
2023-04-09T21:05:23.557Z,8.90
2023-04-09T21:07:52.494Z,9.30
2023-04-09T21:10:20.044Z,9.23
2023-04-09T21:12:47.099Z,9.38
2023-04-09T21:15:14.229Z,8.27
2023-04-09T21:17:41.546Z,8.80
2023-04-09T21:20:09.331Z,8.25
2023-04-09T21:22:36.369Z,8.63
2023-04-09T21:25:03.706Z,8.13
2023-04-09T21:27:31.271Z,8.30
2023-04-09T21:29:58.811Z,8.73
2023-04-09T21:32:25.882Z,10.80
2023-04-09T21:34:53.812Z,10.18
2023-04-09T21:37:20.818Z,9.93
2023-04-09T21:39:48.902Z,10.27
2023-04-09T21:42:15.997Z,10.40
2023-04-09T21:44:42.998Z,10.90
2023-04-09T21:47:12.205Z,9.97
2023-04-09T21:49:40.562Z,9.68
2023-04-09T21:52:14.473Z,10.00
2023-04-09T21:54:43.328Z,11.18
2023-04-09T21:57:11.400Z,11.38
2023-04-09T21:59:38.687Z,10.97
2023-04-09T22:02:06.063Z,11.67
2023-04-09T22:04:35.229Z,12.73
2023-04-09T22:07:03.369Z,14.93
2023-04-09T22:09:31.610Z,14.90
2023-04-09T22:11:59.732Z,15.27
2023-04-09T22:14:29.534Z,16.47
2023-04-09T22:16:58.344Z,16.47
2023-04-09T22:19:26.354Z,14.63
2023-04-09T22:21:53.815Z,15.30
2023-04-09T22:24:27.022Z,14.17
2023-04-09T22:26:54.248Z,14.37
2023-04-09T22:29:21.383Z,13.57
2023-04-09T22:31:48.398Z,13.27
2023-04-09T22:34:21.531Z,13.43
2023-04-09T22:36:49.250Z,14.03
2023-04-09T22:39:16.662Z,13.77
2023-04-09T22:41:43.970Z,14.30
2023-04-09T22:44:10.999Z,13.57
2023-04-09T22:46:38.175Z,14.77
2023-04-09T22:49:06.361Z,13.50
2023-04-09T22:51:34.674Z,14.37
2023-04-09T22:54:02.284Z,15.07
2023-04-09T22:56:31.825Z,14.60
2023-04-09T22:58:59.209Z,15.60
2023-04-09T23:01:27.194Z,16.50
2023-04-09T23:03:54.640Z,16.53
2023-04-09T23:06:22.647Z,15.97
2023-04-09T23:08:50.628Z,17.30
2023-04-09T23:11:17.893Z,18.23
2023-04-09T23:13:44.966Z,18.50
2023-04-09T23:16:12.005Z,17.87
2023-04-09T23:18:39.349Z,18.43
2023-04-09T23:21:08.014Z,17.97
2023-04-09T23:23:36.366Z,18.03
2023-04-09T23:26:04.362Z,16.80
2023-04-09T23:28:31.608Z,16.47
2023-04-09T23:30:58.588Z,16.50
2023-04-09T23:33:25.579Z,16.73
2023-04-09T23:35:52.647Z,16.60
2023-04-09T23:38:19.903Z,16.73
2023-04-09T23:40:48.547Z,16.93
2023-04-09T23:43:15.629Z,17.00
2023-04-09T23:45:44.027Z,17.47
2023-04-09T23:48:12.476Z,17.57
2023-04-09T23:50:41.506Z,18.70
2023-04-09T23:53:09.050Z,17.80
2023-04-09T23:55:41.178Z,19.57
2023-04-09T23:58:09.595Z,19.00
